Flight Track Log - Related Links

Times and Time Zones

All times are in EDT time to prevent confusion due to time zone crossing. See the N9433D flight status page for this flight to view local times or setup timezone preferences in your user account.

Time Position Orientation Groundspeed Altitude Reporting Facility
EDT Latitude Longitude Course Direction KTS MPH feet Rate Location/Type
Fri 04:58:49 PM 42.7033 -82.5806 183° South 84 97 4,000  Level Cleveland Center
Fri 04:59:44 PM 42.6806 -82.5800 179° South 87 100 4,000  Level Cleveland Center
Fri 05:00:44 PM 42.6575 -82.5819 184° South 82 94 4,000  Level Cleveland Center
Fri 05:02:00 PM 42.7736 -82.5406 184° South  Level Estimated
Fri 05:02:00 PM 42.6326 -82.5804 177° South  Level FlightAware Approximate
Fri 05:02:46 PM 42.6117 -82.5833 177° South 83 96 4,000  Level Cleveland Center
Fri 05:03:00 PM 42.7540 -82.5420 183° South  Level FlightAware Approximate
Fri 05:03:47 PM 42.5886 -82.5856 184° South 83 96 4,100  Level Cleveland Center
Fri 05:04:00 PM 42.7343 -82.5435 183° South  Level FlightAware Approximate
Fri 05:04:48 PM 42.5636 -82.5875 183° South 85 98 4,100  Level Cleveland Center
Fri 05:05:49 PM 42.5406 -82.5867 178° South 85 98 4,100  Level Cleveland Center
Fri 05:06:50 PM 42.5156 -82.5889 184° South 87 100 4,100 -49 Level Cleveland Center
Fri 05:07:51 PM 42.4906 -82.5881 179° South 88 101 4,000  Descending Cleveland Center
Fri 05:08:51 PM 42.4656 -82.5928 188° South 85 98 4,100 47 Climbing Cleveland Center
Fri 05:09:00 PM 42.4951 -82.5716 177° South  Level FlightAware Approximate
Fri 05:09:58 PM 42.4386 -82.5919 179° South 84 97 4,100  Level Cleveland Center
Fri 05:10:53 PM 42.4178 -82.5914 179° South 88 101 4,100  Level Cleveland Center
Fri 05:11:54 PM 42.3947 -82.5961 189° South 87 100 4,100  Level Cleveland Center
Fri 05:12:54 PM 42.3694 -82.5981 183° South 85 98 4,100  Level Cleveland Center
Fri 05:13:55 PM 42.3444 -82.6003 184° South 86 99 4,100 -49 Level Cleveland Center
Fri 05:14:56 PM 42.3217 -82.5994 178° South 85 98 4,000 -49 Descending Cleveland Center
Fri 05:15:57 PM 42.2986 -82.5989 179° South 86 99 4,000 49 Level Cleveland Center
Fri 05:16:58 PM 42.2758 -82.6008 184° South 84 97 4,100 49 Climbing Cleveland Center
Fri 05:17:59 PM 42.2506 -82.6056 188° South 86 99 4,100  Level Cleveland Center
Fri 05:19:00 PM 42.2236 -82.6047 179° South 87 100 4,100  Level Cleveland Center
Fri 05:20:01 PM 42.1986 -82.6039 179° South 87 100 4,100  Level Cleveland Center
Fri 05:21:02 PM 42.1736 -82.6061 184° South 88 101 4,100  Level Cleveland Center
Fri 05:22:02 PM 42.1525 -82.6108 189° South 87 100 4,100  Level Cleveland Center
Fri 05:23:03 PM 42.1297 -82.6103 179° South 87 100 4,100  Level Cleveland Center
Fri 05:24:04 PM 42.1047 -82.6122 183° South 81 93 4,100  Level Cleveland Center
Fri 05:25:05 PM 42.0797 -82.6114 179° South 84 97 4,100  Level Cleveland Center
Fri 05:26:06 PM 42.0567 -82.6136 184° South 87 100 4,100 -49 Level Cleveland Center
Fri 05:27:07 PM 42.0317 -82.6128 179° South 86 99 4,000  Descending Cleveland Center
Fri 05:27:54 PM 42.0106 -82.6175 189° South 85 98 4,100 74 Climbing Cleveland Center
Fri 05:29:00 PM 41.9817 -82.6173 180° South  Level FlightAware Approximate
Fri 05:29:50 PM 41.9669 -82.6217 180° South 84 97 4,200  Level Cleveland Center
Fri 05:30:50 PM 41.9439 -82.6211 179° South 81 93 4,200  Level Cleveland Center
Fri 05:31:51 PM 41.9189 -82.6231 183° South 84 97 4,200  Level Cleveland Center
Fri 05:32:52 PM 41.8939 -82.6278 188° South 82 94 4,200 -188 Level Cleveland Center
Fri 05:33:59 PM 41.8667 -82.6269 179° South 91 105 3,800 -347 Descending Cleveland Center
Fri 05:34:53 PM 41.8417 -82.6261 179° South 96 110 3,500 -209 Descending Cleveland Center
Fri 05:35:54 PM 41.8189 -82.6172 164° South 91 105 3,400 -148 Descending Cleveland Center
Fri 05:36:55 PM 41.7942 -82.6081 165° South 89 102 3,200 -98 Descending Cleveland Center
Fri 05:37:56 PM 41.7692 -82.6017 169° South 89 102 3,200  Level Cleveland Center
Fri 05:38:56 PM 41.7422 -82.5925 166° South 88 101 3,200  Level Cleveland Center
Fri 05:39:57 PM 41.7194 -82.5806 159° South 88 101 3,200  Level Cleveland Center
Fri 05:40:58 PM 41.6967 -82.5742 168° South 88 101 3,200  Level Cleveland Center
Fri 05:41:58 PM 41.6717 -82.5792 188° South 90 104 3,200 -50 Level Cleveland Center
Fri 05:42:59 PM 41.6464 -82.5894 197° South 91 105 3,100  Descending Cleveland Center
Fri 05:44:00 PM 41.6214 -82.5942 188° South 90 104 3,200  Climbing Cleveland Center
Fri 05:45:01 PM 41.5942 -82.5989 187° South 90 104 3,100 -98 Descending Cleveland Center

Login

Don't have an account? Register now (free) for customized features, flight alerts, and more!